Perkinsville, NY (14529)

2:03 AM EDT on April 21, 2015 (GMT -0400)
Wayland-Cohocton Central School District | | Change Station
CLOSE
Current Station
Personal Weather Station
Location: Wayland, NY
Elevation: 1378 ft
Nearby Weather Stations

Elev 1378 ft 42.56 °N, 77.60 °W | Updated 6 minutes ago

Overcast
Overcast
47.8 °F
Feels Like 45 °F
N
7.0
Wind Variable Wind from NW
Gusts 13.0 mph

Today
High -- | Low -- °F
--% Chance of Precip.
Yesterday
High -- | Low -- °F
Precip. -- in
6:20 AM 7:58 PM
Waxing Crescent, 8% visible
Pressure 29.63 in
Visibility 10.0 miles
Clouds Scattered Clouds 2900 ft
Overcast 6500 ft
Windchill 45 °F
Dew Point 42 °F
Humidity 80%
Rainfall 0.00 in
Snow Depth Not available.
UV 0 out of 12
Pollen 3.40 out of 12
Air Quality Not available.
Flu Activity Widespread
METAR KDSV 210554Z AUTO 29003KT 10SM -RA SCT029 OVC065 12/06 A2961 RMK AO2 RAB50 SLP033 P0000 60015 T01170061 10167 20111 51014

More Conditions Fewer Conditions

Pressure 29.63 in
Visibility 10.0 miles
Clouds Scattered Clouds 2900 ft
Overcast 6500 ft
Windchill 45 °F
Dew Point 42 °F
Humidity 80%
Rainfall 0.00 in
Snow Depth Not available.
UV 0 out of 12
Pollen 3.40 out of 12
Air Quality Not available.
Flu Activity Widespread
METAR KDSV 210554Z AUTO 29003KT 10SM -RA SCT029 OVC065 12/06 A2961 RMK AO2 RAB50 SLP033 P0000 60015 T01170061 10167 20111 51014

More Conditions Fewer Conditions

10-Day Weather Forecast

Almanac

Astronomy

Apr. 21, 2015 Rise Set
Actual Time
Civil Twilight
Nautical Twilight
Astronomical Twilight
Moon
Length of Visible Light
Length of Day
Tomorrow will be .
, % of the Moon is Illuminated

Today's Extremes

State Highs State Lows

Community

WunderPhotos

Upload Photos

1,815,318 photos uploaded!

WunderBlogs® & News

Nearby

Air Quality

  Air Quality AQ Index Pollutant
Not available.

Snow Depth

Station Depth Elevation

Earthquake Activity

City Distance Mag. Time & Date
Minimum magnitude displayed is 2.5.

Coastal Water Temperatures

Place Temperature

Stations

Nearby Weather Stations

Station Location Temp. Windchill Dew Point Humidity Wind Precip. Elev Updated Type